Kecskemet, Hungary
Current Conditions -  °F | °C
As of 5:15 AM on Sunday 23 Nov 2014 (Local Time) from LHKE Reporting Station
Haze Haze  
Wind Chill: 41°   Ceiling: 4000
Heat Index: 41°   Visibility: 2.5mi
Dew Point: 39°   Wind: 0mph
Humidity: 93%   Direction: NA
Pressure: 30.39"   Gusts: NA
Location:  46.91°N, 19.69°E
Report Text: LHKE 230315Z 00000KT 4000 BR OVC040 05/04 Q1029 NOSIG RMK GRN
Loading
Personal Weather Stations






























Interactive Weather Map New forecast layout! Learn more

10-Day Weather Forecast

Advertisements
Track Severe Weather on mobile